Big Lake, Texas
Current Conditions -  °F | °C
As of 2:15 AM on Friday 24 Oct 2014 (Local Time) from KOZA Reporting Station
Moderate Fog Moderate Fog  
Wind Chill: 54°   Ceiling: 200
Heat Index: 54°   Visibility: 0.25mi
Dew Point: 52°   Wind: 0mph
Humidity: 94%   Direction: NA
Pressure: 30.18"   Gusts: NA
Location:  31.19°N, 101.46°W
Report Text: KOZA 240715Z AUTO 00000KT 1/4SM FG OVC002 12/11 A3018 RMK AO2
Loading
Personal Weather Stations






























Interactive Weather Map New forecast layout! Learn more

10-Day Weather Forecast

Advertisements
Track Severe Weather on mobile